»·PEaware :: WAT415 KTUS-KNYL

WAT415 :: KTUS-KNYL

FLIGHT INFORMATION

Flight Status: Arrived
Operator:
Walker Air Transport
More flights by this operator :: More flights under this callsign
Pilot: Spencer F. (32151)
Aircraft: CESSNA 172 SKYHAWK
(C172)
More flights by this aircraft type
Origin: KTUS Tucson Intl
United States
Destination: KNYL Yuma MCAS/Yuma Intl
United States
More flights between these airports :: More routes between these airports
Route: +
File this flight plan on PilotEdge
Remarks:
Altitude:
(Current/Filed)
8,500ft
Speed:
(Current/Filed)
0kts
Departed: 08-Nov-20 09:28 AM
Arrived: 08-Nov-20 10:52 AM
Distance/Time
Traveled:
188nm/1:23
Distance/Time
To Go:
Arrived

Flight Plot

Page will automatically refresh every two minutes.

Flight plan parsing failed; only flown route is shown


Map Options




Map Legend


Flown Route
Filed Route
Departure Airport
Arrival Airport
Navaid (VOR, NDB)
Fix

Horizontal Profiles

Position Reports

Time Latitude Longitude Heading Altitude Ground
Speed
08-Nov-20 09:22 32.123936 -110.944452 276 2585ft 0kts
08-Nov-20 09:22 32.123936 -110.944452 276 2585ft 0kts
08-Nov-20 09:23 32.123936 -110.944452 276 2585ft 0kts
08-Nov-20 09:24 32.123965 -110.947044 225 2583ft 9kts
08-Nov-20 09:25 32.123825 -110.947213 227 2583ft 0kts
08-Nov-20 09:26 32.123136 -110.947536 132 2584ft 0kts
08-Nov-20 09:27 32.111743 -110.934256 134 2911ft 74kts
08-Nov-20 09:28 32.107890 -110.944281 298 3438ft 78kts
08-Nov-20 09:29 32.118501 -110.966800 298 4034ft 78kts
08-Nov-20 09:30 32.129138 -110.989418 298 4570ft 79kts
08-Nov-20 09:31 32.139768 -111.012125 298 5133ft 79kts
08-Nov-20 09:32 32.150513 -111.035117 298 5880ft 80kts
08-Nov-20 09:33 32.161317 -111.058299 298 6612ft 81kts
08-Nov-20 09:34 32.172285 -111.081850 298 7302ft 82kts
08-Nov-20 09:35 32.183363 -111.105636 298 7950ft 83kts
08-Nov-20 09:36 32.194676 -111.129926 298 8490ft 94kts
08-Nov-20 09:37 32.209481 -111.161702 298 8541ft 120kts
08-Nov-20 09:38 32.225875 -111.196736 298 8539ft 122kts
08-Nov-20 09:39 32.242394 -111.231935 298 8544ft 122kts
08-Nov-20 09:40 32.258900 -111.267087 298 8545ft 122kts
08-Nov-20 09:41 32.275473 -111.302343 298 8545ft 122kts
08-Nov-20 09:42 32.292020 -111.337533 298 8546ft 122kts
08-Nov-20 09:43 32.308100 -111.371716 298 8551ft 122kts
08-Nov-20 09:44 32.324684 -111.406957 298 8545ft 122kts
08-Nov-20 09:45 32.341196 -111.442012 298 8547ft 122kts
08-Nov-20 09:46 32.357777 -111.477185 298 8545ft 122kts
08-Nov-20 09:47 32.374397 -111.512466 298 8546ft 123kts
08-Nov-20 09:48 32.391055 -111.547778 298 8545ft 122kts
08-Nov-20 09:49 32.407696 -111.583061 298 8546ft 122kts
08-Nov-20 09:50 32.424328 -111.618270 298 8546ft 122kts
08-Nov-20 09:51 32.440979 -111.653543 298 8546ft 122kts
08-Nov-20 09:52 32.457628 -111.688766 298 8546ft 122kts
08-Nov-20 09:53 32.474300 -111.724028 298 8545ft 122kts
08-Nov-20 09:54 32.490928 -111.759195 298 8546ft 122kts
08-Nov-20 09:55 32.507613 -111.794465 298 8546ft 122kts
08-Nov-20 09:56 32.524278 -111.829661 298 8545ft 122kts
08-Nov-20 09:57 32.540896 -111.864772 298 8545ft 122kts
08-Nov-20 09:58 32.557578 -111.900016 298 8551ft 123kts
08-Nov-20 09:59 32.574333 -111.935361 298 8544ft 122kts
08-Nov-20 10:00 32.591037 -111.970612 298 8546ft 122kts
08-Nov-20 10:01 32.607740 -112.005822 298 8545ft 122kts
08-Nov-20 10:02 32.624435 -112.041014 298 8546ft 122kts
08-Nov-20 10:03 32.641126 -112.076169 298 8545ft 122kts
08-Nov-20 10:04 32.657841 -112.111390 299 8550ft 122kts
08-Nov-20 10:05 32.674541 -112.146552 299 8544ft 122kts
08-Nov-20 10:06 32.691310 -112.181826 299 8545ft 122kts
08-Nov-20 10:07 32.708051 -112.217062 299 8546ft 122kts
08-Nov-20 10:08 32.724820 -112.252330 299 8546ft 122kts
08-Nov-20 10:09 32.741581 -112.287574 299 8546ft 122kts
08-Nov-20 10:10 32.758301 -112.322713 299 8545ft 122kts
08-Nov-20 10:11 32.775038 -112.357885 299 8546ft 122kts
08-Nov-20 10:12 32.791820 -112.393146 299 8546ft 122kts
08-Nov-20 10:13 32.808628 -112.428421 299 8545ft 122kts
08-Nov-20 10:14 32.825414 -112.463638 299 8547ft 122kts
08-Nov-20 10:15 32.842182 -112.498830 299 8546ft 122kts
08-Nov-20 10:16 32.859023 -112.534143 299 8546ft 122kts
08-Nov-20 10:17 32.875043 -112.569719 279 8547ft 122kts
08-Nov-20 10:18 32.877683 -112.609738 282 8546ft 122kts
08-Nov-20 10:19 32.885067 -112.649202 282 8545ft 122kts
08-Nov-20 10:20 32.892443 -112.688788 282 8545ft 122kts
08-Nov-20 10:21 32.899763 -112.728296 281 8546ft 122kts
08-Nov-20 10:22 32.896310 -112.768390 262 8546ft 122kts
08-Nov-20 10:23 32.891533 -112.808408 262 8546ft 122kts
08-Nov-20 10:24 32.886779 -112.848510 262 8545ft 122kts
08-Nov-20 10:25 32.882060 -112.888544 262 8546ft 122kts
08-Nov-20 10:26 32.877347 -112.928671 262 8546ft 122kts
08-Nov-20 10:27 32.872670 -112.968637 262 8546ft 122kts
08-Nov-20 10:28 32.867629 -113.011845 262 8545ft 122kts
08-Nov-20 10:29 32.858320 -113.091916 262 8546ft 122kts
08-Nov-20 10:30 32.849062 -113.171839 262 8546ft 122kts
08-Nov-20 10:31 32.839786 -113.252151 262 8546ft 122kts
08-Nov-20 10:32 32.831185 -113.332308 263 8546ft 122kts
08-Nov-20 10:33 32.823177 -113.412816 263 8545ft 122kts
08-Nov-20 10:34 32.815204 -113.493130 263 8546ft 122kts
08-Nov-20 10:35 32.807259 -113.573370 263 8545ft 122kts
08-Nov-20 10:36 32.799339 -113.653606 263 8546ft 122kts
08-Nov-20 10:37 32.791425 -113.733991 263 8546ft 122kts
08-Nov-20 10:38 32.783547 -113.814259 263 8546ft 122kts
08-Nov-20 10:39 32.775677 -113.894700 263 8546ft 122kts
08-Nov-20 10:40 32.767856 -113.974865 263 8546ft 122kts
08-Nov-20 10:41 32.760045 -114.055166 263 8546ft 122kts
08-Nov-20 10:42 32.752243 -114.135609 263 8546ft 122kts
08-Nov-20 10:43 32.744480 -114.215908 263 8547ft 122kts
08-Nov-20 10:44 32.736564 -114.297970 263 6640ft 124kts
08-Nov-20 10:45 32.728782 -114.379105 263 4641ft 123kts
08-Nov-20 10:46 32.721286 -114.457496 263 3087ft 112kts
08-Nov-20 10:47 32.715496 -114.518235 263 2333ft 105kts
08-Nov-20 10:48 32.702177 -114.552321 232 1599ft 115kts
08-Nov-20 10:49 32.680808 -114.578831 224 1018ft 103kts
08-Nov-20 10:50 32.663525 -114.598804 224 244ft 70kts
08-Nov-20 10:51 32.657077 -114.603859 173 193ft 22kts
08-Nov-20 10:52 32.650869 -114.601213 152 192ft 19kts
08-Nov-20 10:53 32.649649 -114.599258 89 194ft 0kts

Navigation Log

Ident Type
Flight plan parsing failed, navigation log unavailable